createdAt,value
2018-06-09T00:00:30.633Z,55.88
2018-06-09T00:01:30.680Z,56.07
2018-06-09T00:02:31.923Z,55.94
2018-06-09T00:03:30.528Z,56.12
2018-06-09T00:04:30.599Z,56.1
2018-06-09T00:05:30.705Z,56.04
2018-06-09T00:06:30.676Z,56.15
2018-06-09T00:07:32.008Z,56.13
2018-06-09T00:08:30.297Z,56.01
2018-06-09T00:09:30.762Z,56.06
2018-06-09T00:10:31.969Z,56.1
2018-06-09T00:11:30.680Z,56.14
2018-06-09T00:12:31.669Z,56.29
2018-06-09T00:13:30.695Z,56.16
2018-06-09T00:14:30.709Z,56.02
2018-06-09T00:15:30.593Z,56.31
2018-06-09T00:16:30.470Z,56.27
2018-06-09T00:17:30.622Z,56.25
2018-06-09T00:18:30.764Z,56.17
2018-06-09T00:19:30.629Z,56.27
2018-06-09T00:20:30.725Z,55.96
2018-06-09T00:21:30.352Z,55.97
2018-06-09T00:22:31.965Z,55.98
2018-06-09T00:23:30.558Z,56.12
2018-06-09T00:24:30.377Z,56.31
2018-06-09T00:25:31.283Z,56.19
2018-06-09T00:26:30.628Z,56.23
2018-06-09T00:27:30.667Z,55.93
2018-06-09T00:28:30.804Z,56.07
2018-06-09T00:29:30.795Z,56.25
2018-06-09T00:30:30.506Z,56.21
2018-06-09T00:31:30.495Z,56.02
2018-06-09T00:32:30.482Z,56.24
2018-06-09T00:33:30.754Z,56.06
2018-06-09T00:34:30.619Z,56.04
2018-06-09T00:35:30.750Z,56.19
2018-06-09T00:36:30.583Z,56.04
2018-06-09T00:37:30.737Z,56.2
2018-06-09T00:38:30.106Z,56.25
2018-06-09T00:39:29.802Z,55.93
2018-06-09T00:40:30.689Z,56.2
2018-06-09T00:41:29.918Z,56.05
2018-06-09T00:42:29.976Z,56.4
2018-06-09T00:43:30.037Z,56.24
2018-06-09T00:44:29.892Z,55.95
2018-06-09T00:45:30.778Z,56.3
2018-06-09T00:46:30.881Z,56.11
2018-06-09T00:47:30.014Z,56.12
2018-06-09T00:48:30.013Z,56.15
2018-06-09T00:49:31.562Z,56.17
2018-06-09T00:50:30.111Z,56.12
2018-06-09T00:51:30.547Z,56.15
2018-06-09T00:52:29.962Z,56.28
2018-06-09T00:53:29.890Z,56.16
2018-06-09T00:54:29.968Z,56.1
2018-06-09T00:55:29.861Z,56.18
2018-06-09T00:56:29.856Z,56.18
2018-06-09T00:57:29.873Z,56.21
2018-06-09T00:58:29.944Z,56.22
2018-06-09T00:59:30.042Z,56.06
2018-06-09T01:00:29.793Z,56.03
2018-06-09T01:01:29.835Z,56.13
2018-06-09T01:02:30.061Z,56.17
2018-06-09T01:03:29.960Z,56.14
2018-06-09T01:04:30.367Z,56.07
2018-06-09T01:05:29.794Z,56.16
2018-06-09T01:06:29.955Z,56.11
2018-06-09T01:07:29.869Z,55.99
2018-06-09T01:08:29.987Z,55.97
2018-06-09T01:09:30.057Z,56.18
2018-06-09T01:10:29.886Z,56.38
2018-06-09T01:11:46.411Z,56.19
2018-06-09T01:12:29.805Z,56.32
2018-06-09T01:13:30.018Z,56.28
2018-06-09T01:14:29.836Z,56.27
2018-06-09T01:15:30.074Z,55.91
2018-06-09T01:16:29.767Z,56.03
2018-06-09T01:17:29.850Z,56.19
2018-06-09T01:18:30.036Z,56.41
2018-06-09T01:19:29.940Z,56.29
2018-06-09T01:20:29.920Z,56.24
2018-06-09T01:21:30.627Z,55.95
2018-06-09T01:22:29.964Z,55.99
2018-06-09T01:23:29.801Z,56.01
2018-06-09T01:24:29.869Z,56.13
2018-06-09T01:25:30.005Z,56.02
2018-06-09T01:26:30.093Z,56.18
2018-06-09T01:27:29.939Z,56.18
2018-06-09T01:28:39.872Z,56.23
2018-06-09T01:29:29.851Z,56.02
2018-06-09T01:30:30.031Z,55.99
2018-06-09T01:31:29.986Z,56.32
2018-06-09T01:32:30.037Z,56.28
2018-06-09T01:33:29.955Z,56.22
2018-06-09T01:34:29.969Z,56.43
2018-06-09T01:35:29.988Z,56.25
2018-06-09T01:36:29.939Z,56.42
2018-06-09T01:37:29.987Z,56.28
2018-06-09T01:38:30.206Z,56.2
2018-06-09T01:39:29.915Z,55.98
2018-06-09T01:40:29.937Z,56.02
2018-06-09T01:41:29.939Z,56.24
2018-06-09T01:42:30.011Z,55.99
2018-06-09T01:43:30.115Z,56.31
2018-06-09T01:44:32.536Z,56.17
2018-06-09T01:45:30.000Z,56.14
2018-06-09T01:46:29.940Z,56.08
2018-06-09T01:47:29.974Z,56.1
2018-06-09T01:48:29.911Z,56.08
2018-06-09T01:49:29.937Z,56.17
2018-06-09T01:50:30.096Z,56.15
2018-06-09T01:51:29.934Z,56.37
2018-06-09T01:52:29.912Z,56.19
2018-06-09T01:53:30.073Z,56.31
2018-06-09T01:54:29.987Z,56.18
2018-06-09T01:55:29.911Z,56.51
2018-06-09T01:56:30.015Z,56.12
2018-06-09T01:57:30.036Z,56.2
2018-06-09T01:58:29.915Z,56.17
2018-06-09T01:59:32.576Z,56.22
2018-06-09T02:00:30.151Z,56.17
2018-06-09T02:01:29.913Z,56.2
2018-06-09T02:02:30.022Z,56.17
2018-06-09T02:03:30.052Z,56.21
2018-06-09T02:04:30.061Z,56.23
2018-06-09T02:05:32.569Z,56.2
2018-06-09T02:06:30.045Z,56.37
2018-06-09T02:07:30.079Z,56.27
2018-06-09T02:08:30.047Z,56.07
2018-06-09T02:09:30.222Z,56.3
2018-06-09T02:10:29.928Z,56.25
2018-06-09T02:11:29.965Z,56.19
2018-06-09T02:12:32.347Z,56.17
2018-06-09T02:13:30.095Z,56.17
2018-06-09T02:14:30.295Z,56.16
2018-06-09T02:15:29.995Z,56.19
2018-06-09T02:16:29.923Z,56.07
2018-06-09T02:17:29.933Z,56.25
2018-06-09T02:18:29.952Z,56.16
2018-06-09T02:19:30.049Z,56
2018-06-09T02:20:30.038Z,56.25
2018-06-09T02:21:30.071Z,56.15
2018-06-09T02:22:29.994Z,55.97
2018-06-09T02:23:30.142Z,56.33
2018-06-09T02:24:32.552Z,56.24
2018-06-09T02:25:29.939Z,56.12
2018-06-09T02:26:30.027Z,56.31
2018-06-09T02:27:30.045Z,56.34
2018-06-09T02:28:29.971Z,56.27
2018-06-09T02:29:29.955Z,56.3
2018-06-09T02:30:30.056Z,56.3
2018-06-09T02:31:30.127Z,56.39
2018-06-09T02:32:32.565Z,56.42
2018-06-09T02:33:30.054Z,56.27
2018-06-09T02:34:30.037Z,56.35
2018-06-09T02:35:29.997Z,56
2018-06-09T02:36:29.978Z,56.01
2018-06-09T02:37:30.061Z,56.44
2018-06-09T02:38:29.873Z,56.14
2018-06-09T02:39:30.262Z,56.02
2018-06-09T02:40:30.193Z,56.22
2018-06-09T02:41:30.163Z,56.45
2018-06-09T02:42:29.746Z,56.19
2018-06-09T02:43:30.307Z,56.25
2018-06-09T02:44:30.219Z,56.33
2018-06-09T02:45:30.230Z,56.05
2018-06-09T02:46:30.548Z,56.26
2018-06-09T02:47:30.556Z,56.24
2018-06-09T02:48:30.152Z,56.25
2018-06-09T02:49:30.207Z,56.2
2018-06-09T02:50:30.523Z,56.15
2018-06-09T02:51:30.339Z,56.17
2018-06-09T02:52:30.176Z,56.38
2018-06-09T02:53:29.855Z,55.94
2018-06-09T02:54:30.173Z,56.29
2018-06-09T02:55:30.248Z,56.24
2018-06-09T02:56:30.338Z,56.26
2018-06-09T02:57:30.236Z,56.26
2018-06-09T02:58:30.281Z,56.37
2018-06-09T02:59:30.183Z,56.29
2018-06-09T03:00:30.229Z,56.42
2018-06-09T03:01:30.174Z,56.08
2018-06-09T03:02:30.345Z,56.23
2018-06-09T03:03:29.851Z,56.27
2018-06-09T03:04:30.212Z,56.22
2018-06-09T03:05:30.164Z,56.04
2018-06-09T03:06:29.826Z,56.22
2018-06-09T03:07:29.876Z,56.19
2018-06-09T03:08:30.278Z,56.18
2018-06-09T03:09:30.215Z,56.34
2018-06-09T03:10:30.257Z,56.21
2018-06-09T03:11:29.862Z,56.21
2018-06-09T03:12:29.850Z,56.28
2018-06-09T03:13:29.783Z,56.2
2018-06-09T03:14:29.911Z,56.21
2018-06-09T03:15:30.189Z,56.13
2018-06-09T03:16:29.777Z,56.01
2018-06-09T03:17:30.933Z,56.12
2018-06-09T03:18:32.191Z,56.19
2018-06-09T03:19:30.253Z,56.14
2018-06-09T03:20:29.815Z,56.1
2018-06-09T03:21:29.809Z,56.27
2018-06-09T03:22:29.876Z,56.14
2018-06-09T03:23:30.247Z,56.4
2018-06-09T03:24:29.857Z,56.23
2018-06-09T03:25:30.294Z,56.28
2018-06-09T03:26:30.326Z,56.25
2018-06-09T03:27:29.856Z,56.34
2018-06-09T03:28:32.643Z,56.02
2018-06-09T03:29:29.883Z,56.03
2018-06-09T03:30:29.855Z,56.25
2018-06-09T03:31:32.379Z,56.34
2018-06-09T03:32:30.289Z,55.88
2018-06-09T03:33:29.816Z,56.14
2018-06-09T03:34:30.230Z,56.01
2018-06-09T03:35:29.841Z,56.06
2018-06-09T03:36:30.301Z,56.06
2018-06-09T03:37:30.232Z,56.17
2018-06-09T03:38:30.042Z,56.09
2018-06-09T03:39:29.920Z,56.39
2018-06-09T03:40:29.932Z,56.12
2018-06-09T03:41:30.060Z,55.99
2018-06-09T03:42:29.827Z,56.36
2018-06-09T03:43:29.910Z,56.11
2018-06-09T03:44:29.828Z,56.18
2018-06-09T03:45:29.868Z,56.12
2018-06-09T03:46:29.829Z,56.26
2018-06-09T03:47:29.957Z,56.32
2018-06-09T03:48:29.867Z,56.24
2018-06-09T03:49:30.013Z,56.29
2018-06-09T03:50:29.892Z,56.32
2018-06-09T03:51:30.193Z,56.1
2018-06-09T03:52:29.856Z,56.3
2018-06-09T03:53:29.830Z,56.13
2018-06-09T03:54:29.988Z,56.23
2018-06-09T03:55:29.972Z,56.18
2018-06-09T03:56:29.915Z,56.22
2018-06-09T03:57:30.045Z,56.3
2018-06-09T03:58:29.892Z,56.28
2018-06-09T03:59:29.799Z,56.21
2018-06-09T04:00:29.948Z,56.14
2018-06-09T04:01:29.907Z,56.22
2018-06-09T04:02:29.957Z,56.34
2018-06-09T04:03:29.854Z,56.15
2018-06-09T04:04:29.670Z,56.1
2018-06-09T04:05:29.978Z,56.15
2018-06-09T04:06:29.963Z,56.1
2018-06-09T04:07:30.000Z,56.21
2018-06-09T04:08:30.041Z,56.26
2018-06-09T04:09:30.029Z,56.21
2018-06-09T04:10:29.833Z,56.22
2018-06-09T04:11:30.068Z,56.22
2018-06-09T04:12:29.858Z,56.09
2018-06-09T04:13:29.862Z,56.29
2018-06-09T04:14:29.801Z,56.15
2018-06-09T04:15:29.848Z,56.07
2018-06-09T04:16:30.011Z,56.17
2018-06-09T04:17:29.886Z,56.16
2018-06-09T04:18:29.989Z,56.14
2018-06-09T04:19:29.939Z,56.41
2018-06-09T04:20:30.023Z,56.17
2018-06-09T04:21:29.803Z,56.1
2018-06-09T04:22:29.768Z,56.21
2018-06-09T04:23:29.987Z,56.13
2018-06-09T04:24:29.769Z,56.05
2018-06-09T04:25:29.821Z,56.24
2018-06-09T04:26:29.817Z,56.16
2018-06-09T04:27:29.890Z,56.11
2018-06-09T04:28:29.884Z,56.13
2018-06-09T04:29:29.848Z,55.97
2018-06-09T04:30:29.844Z,56.19
2018-06-09T04:31:29.893Z,56.22
2018-06-09T04:32:29.850Z,56.04
2018-06-09T04:33:29.800Z,56.18
2018-06-09T04:34:29.829Z,56.14
2018-06-09T04:35:29.981Z,56.28
2018-06-09T04:36:29.821Z,56.16
2018-06-09T04:37:29.932Z,56.09
2018-06-09T04:38:31.328Z,56.15
2018-06-09T04:39:29.905Z,56.15
2018-06-09T04:40:29.800Z,56.06
2018-06-09T04:41:29.839Z,56.09
2018-06-09T04:42:30.149Z,56.17
2018-06-09T04:43:29.871Z,56.15
2018-06-09T04:44:29.889Z,56.31
2018-06-09T04:45:29.980Z,56.24
2018-06-09T04:46:30.040Z,56.13
2018-06-09T04:47:29.933Z,56.2
2018-06-09T04:48:29.965Z,56.16
2018-06-09T04:49:29.854Z,56.05
2018-06-09T04:50:29.998Z,56.2
2018-06-09T04:51:29.872Z,56.17
2018-06-09T04:52:29.980Z,56.2
2018-06-09T04:53:29.949Z,56.21
2018-06-09T04:54:29.866Z,56.28
2018-06-09T04:55:46.463Z,56.11
2018-06-09T04:56:29.990Z,56.08
2018-06-09T04:57:29.790Z,56.14
2018-06-09T04:58:29.855Z,56.08
2018-06-09T04:59:30.013Z,56.14
2018-06-09T05:00:29.790Z,56.36
2018-06-09T05:01:29.913Z,56.25
2018-06-09T05:02:29.926Z,56.17
2018-06-09T05:03:29.860Z,56.09
2018-06-09T05:04:29.803Z,56.33
2018-06-09T05:05:29.901Z,55.97
2018-06-09T05:06:29.730Z,56.29
2018-06-09T05:07:29.929Z,56.07
2018-06-09T05:08:29.803Z,56
2018-06-09T05:09:30.007Z,56.22
2018-06-09T05:10:29.960Z,56.18
2018-06-09T05:11:29.824Z,56.18
2018-06-09T05:12:39.752Z,56.26
2018-06-09T05:13:29.839Z,56.14
2018-06-09T05:14:29.786Z,56.15
2018-06-09T05:15:29.866Z,56.11
2018-06-09T05:16:29.878Z,56.15
2018-06-09T05:17:29.772Z,56.14
2018-06-09T05:18:29.869Z,56.32
2018-06-09T05:19:29.944Z,56.15
2018-06-09T05:20:29.885Z,56.35
2018-06-09T05:21:30.002Z,56.19
2018-06-09T05:22:29.900Z,56.35
2018-06-09T05:23:29.848Z,55.94
2018-06-09T05:24:29.807Z,56.01
2018-06-09T05:25:29.870Z,56.21
2018-06-09T05:26:29.940Z,56.23
2018-06-09T05:27:29.934Z,56.05
2018-06-09T05:28:29.788Z,56.39
2018-06-09T05:29:29.949Z,56.31
2018-06-09T05:30:29.779Z,56.26
2018-06-09T05:31:29.774Z,56.28
2018-06-09T05:32:29.781Z,56.14
2018-06-09T05:33:29.807Z,56.02
2018-06-09T05:34:29.832Z,56.21
2018-06-09T05:35:29.743Z,56.09
2018-06-09T05:36:29.980Z,56.06
2018-06-09T05:37:29.893Z,56.36
2018-06-09T05:38:29.958Z,56.33
2018-06-09T05:39:29.869Z,56.24
2018-06-09T05:40:29.946Z,56.13
2018-06-09T05:41:29.987Z,56.04
2018-06-09T05:42:29.907Z,56.27
2018-06-09T05:43:29.900Z,56.34
2018-06-09T05:44:29.822Z,56.02
2018-06-09T05:45:29.888Z,56.27
2018-06-09T05:46:29.739Z,56.06
2018-06-09T05:47:29.763Z,56
2018-06-09T05:48:29.881Z,56.08
2018-06-09T05:49:30.287Z,56.21
2018-06-09T05:50:29.939Z,56
2018-06-09T05:51:29.963Z,55.99
2018-06-09T05:52:29.971Z,56.11
2018-06-09T05:53:29.868Z,56.14
2018-06-09T05:54:29.872Z,56.07
2018-06-09T05:55:29.963Z,56.02
2018-06-09T05:56:30.056Z,56.18
2018-06-09T05:57:39.844Z,56.19
2018-06-09T05:58:29.980Z,56.26
2018-06-09T05:59:29.978Z,56.01
2018-06-09T06:00:29.929Z,56.13
2018-06-09T06:01:29.876Z,56.32
2018-06-09T06:02:29.754Z,56.06
2018-06-09T06:03:29.710Z,56.27
2018-06-09T06:04:29.872Z,55.96
2018-06-09T06:05:29.963Z,56.28
2018-06-09T06:06:29.947Z,56
2018-06-09T06:07:29.871Z,56.09
2018-06-09T06:08:29.957Z,55.96
2018-06-09T06:09:29.951Z,56.24
2018-06-09T06:10:29.914Z,56.12
2018-06-09T06:11:29.717Z,56.22
2018-06-09T06:12:29.938Z,55.93
2018-06-09T06:13:29.986Z,56.18
2018-06-09T06:14:30.076Z,56.25
2018-06-09T06:15:30.039Z,56.05
2018-06-09T06:16:29.860Z,56.26
2018-06-09T06:17:29.858Z,56.1
2018-06-09T06:18:29.968Z,56.15
2018-06-09T06:19:30.105Z,56.07
2018-06-09T06:20:29.809Z,56.02
2018-06-09T06:21:30.064Z,56.06
2018-06-09T06:22:29.860Z,56.09
2018-06-09T06:23:30.069Z,55.9
2018-06-09T06:24:29.876Z,56.06
2018-06-09T06:25:30.022Z,56.26
2018-06-09T06:26:29.931Z,55.97
2018-06-09T06:27:29.917Z,56.29
2018-06-09T06:28:29.971Z,56.09
2018-06-09T06:29:29.726Z,55.99
2018-06-09T06:30:29.767Z,55.97
2018-06-09T06:31:29.730Z,55.98
2018-06-09T06:32:29.762Z,56.17
2018-06-09T06:33:30.023Z,56.29
2018-06-09T06:34:29.781Z,56.19
2018-06-09T06:35:29.992Z,56.22
2018-06-09T06:36:29.769Z,56.18
2018-06-09T06:37:29.960Z,56.29
2018-06-09T06:38:29.820Z,56.22
2018-06-09T06:39:29.955Z,55.94
2018-06-09T06:40:29.839Z,55.98
2018-06-09T06:41:29.729Z,56.34
2018-06-09T06:42:29.721Z,56.06
2018-06-09T06:43:29.876Z,56.14
2018-06-09T06:44:29.771Z,56.32
2018-06-09T06:45:29.937Z,56.14
2018-06-09T06:46:29.812Z,55.91
2018-06-09T06:47:29.899Z,56.18
2018-06-09T06:48:29.912Z,56.36
2018-06-09T06:49:29.822Z,56.34
2018-06-09T06:50:29.884Z,56.25
2018-06-09T06:51:29.750Z,56.22
2018-06-09T06:52:29.837Z,56.38
2018-06-09T06:53:29.767Z,56.15
2018-06-09T06:54:29.850Z,56.3
2018-06-09T06:55:29.985Z,56.01
2018-06-09T06:56:29.886Z,56.24
2018-06-09T06:57:29.703Z,56.31
2018-06-09T06:58:29.968Z,56.13
2018-06-09T06:59:29.775Z,56.07
2018-06-09T07:00:29.798Z,56.13
2018-06-09T07:01:29.811Z,56.08
2018-06-09T07:02:29.716Z,56.03
2018-06-09T07:03:29.831Z,56.08
2018-06-09T07:04:29.814Z,55.94
2018-06-09T07:05:29.838Z,56.07
2018-06-09T07:06:30.207Z,56.27
2018-06-09T07:07:29.961Z,56.1
2018-06-09T07:08:30.034Z,56.14
2018-06-09T07:09:29.838Z,56.03
2018-06-09T07:10:29.884Z,56.36
2018-06-09T07:11:29.828Z,56.24
2018-06-09T07:12:29.763Z,56.3
2018-06-09T07:13:29.853Z,56.28
2018-06-09T07:14:29.846Z,56.13
2018-06-09T07:15:29.925Z,55.99
2018-06-09T07:16:29.856Z,56.15
2018-06-09T07:17:29.956Z,56.27
2018-06-09T07:18:29.738Z,56.16
2018-06-09T07:19:29.851Z,56.22
2018-06-09T07:20:30.001Z,55.92
2018-06-09T07:21:29.958Z,55.97
2018-06-09T07:22:29.861Z,56.33
2018-06-09T07:23:29.866Z,56
2018-06-09T07:24:29.771Z,55.97
2018-06-09T07:25:30.029Z,56.15
2018-06-09T07:26:29.823Z,55.99
2018-06-09T07:27:29.928Z,56.31
2018-06-09T07:28:29.921Z,56.08
2018-06-09T07:29:29.900Z,55.94
2018-06-09T07:30:29.710Z,56.13
2018-06-09T07:31:29.727Z,56.4
2018-06-09T07:32:29.818Z,56.06
2018-06-09T07:33:29.776Z,56.08
2018-06-09T07:34:29.824Z,56.11
2018-06-09T07:35:29.968Z,56.38
2018-06-09T07:36:30.001Z,55.94
2018-06-09T07:37:29.812Z,56.17
2018-06-09T07:38:30.174Z,56.27
2018-06-09T07:39:30.130Z,56
2018-06-09T07:40:29.886Z,56.03
2018-06-09T07:41:29.935Z,56.05
2018-06-09T07:42:29.706Z,56.13
2018-06-09T07:43:29.777Z,56.22
2018-06-09T07:44:30.066Z,56
2018-06-09T07:45:29.890Z,56.03
2018-06-09T07:46:29.824Z,56.3
2018-06-09T07:47:29.880Z,56.27
2018-06-09T07:48:29.808Z,56.07
2018-06-09T07:49:29.976Z,56.21
2018-06-09T07:50:29.731Z,56.13
2018-06-09T07:51:29.706Z,56.21
2018-06-09T07:52:29.818Z,56.21
2018-06-09T07:53:29.812Z,56.07
2018-06-09T07:54:29.847Z,56.15
2018-06-09T07:55:29.838Z,56.25
2018-06-09T07:56:29.939Z,56
2018-06-09T07:57:29.810Z,55.98
2018-06-09T07:58:29.864Z,56.28
2018-06-09T07:59:29.889Z,55.98
2018-06-09T08:00:29.698Z,56.31
2018-06-09T08:01:29.866Z,56.24
2018-06-09T08:02:29.840Z,56.29
2018-06-09T08:03:29.701Z,55.85
2018-06-09T08:04:29.885Z,56.15
2018-06-09T08:05:29.898Z,56.25
2018-06-09T08:06:29.739Z,56.09
2018-06-09T08:07:29.835Z,56.3
2018-06-09T08:08:29.811Z,56.25
2018-06-09T08:09:29.853Z,56.03
2018-06-09T08:10:29.969Z,56.16
2018-06-09T08:11:29.927Z,56.12
2018-06-09T08:12:29.840Z,56.67
2018-06-09T08:13:30.042Z,56.52
2018-06-09T08:14:30.094Z,56.93
2018-06-09T08:15:29.917Z,56.59
2018-06-09T08:16:29.803Z,56.86
2018-06-09T08:17:29.811Z,56.73
2018-06-09T08:18:29.865Z,56.57
2018-06-09T08:19:30.129Z,56.69
2018-06-09T08:20:29.705Z,56.45
2018-06-09T08:21:29.972Z,56.54
2018-06-09T08:22:29.854Z,56.49
2018-06-09T08:23:29.808Z,56.5
2018-06-09T08:24:30.152Z,56.5
2018-06-09T08:25:29.798Z,56.87
2018-06-09T08:26:29.881Z,56.89
2018-06-09T08:27:29.914Z,56.96
2018-06-09T08:28:29.852Z,56.93
2018-06-09T08:29:29.705Z,56.89
2018-06-09T08:30:29.902Z,56.99
2018-06-09T08:31:29.948Z,56.93
2018-06-09T08:32:29.941Z,56.73
2018-06-09T08:33:29.909Z,56.76
2018-06-09T08:34:30.059Z,57.05
2018-06-09T08:35:29.918Z,56.87
2018-06-09T08:36:29.905Z,57.82
2018-06-09T08:37:29.970Z,57.46
2018-06-09T08:38:30.508Z,57.43
2018-06-09T08:39:29.820Z,57.3
2018-06-09T08:40:29.742Z,57.5
2018-06-09T08:41:29.826Z,57.25
2018-06-09T08:42:29.765Z,57.25
2018-06-09T08:43:29.929Z,57.46
2018-06-09T08:44:29.800Z,57.39
2018-06-09T08:45:29.929Z,57.36
2018-06-09T08:46:29.837Z,57.25
2018-06-09T08:47:29.864Z,57.09
2018-06-09T08:48:29.740Z,56.93
2018-06-09T08:49:29.657Z,57.13
2018-06-09T08:50:29.754Z,57.28
2018-06-09T08:51:29.924Z,57.34
2018-06-09T08:52:29.855Z,57
2018-06-09T08:53:29.974Z,57.24
2018-06-09T08:54:29.773Z,57.28
2018-06-09T08:55:29.922Z,57.12
2018-06-09T08:56:29.727Z,57.32
2018-06-09T08:57:29.807Z,57.1
2018-06-09T08:58:29.753Z,56.98
2018-06-09T08:59:29.853Z,57.14
2018-06-09T09:00:29.946Z,57.2
2018-06-09T09:01:30.205Z,57.38
2018-06-09T09:02:29.727Z,56.92
2018-06-09T09:03:29.921Z,57.07
2018-06-09T09:04:29.961Z,57.08
2018-06-09T09:05:29.849Z,57.06
2018-06-09T09:06:29.761Z,57.21
2018-06-09T09:07:29.710Z,57.41
2018-06-09T09:08:29.760Z,57.35
2018-06-09T09:09:29.885Z,57.29
2018-06-09T09:10:29.762Z,57.19
2018-06-09T09:11:29.806Z,57.3
2018-06-09T09:12:29.853Z,57.01
2018-06-09T09:13:29.733Z,56.94
2018-06-09T09:14:29.674Z,57.05
2018-06-09T09:15:29.959Z,57.06
2018-06-09T09:16:29.975Z,57.35
2018-06-09T09:17:29.813Z,57.1
2018-06-09T09:18:29.776Z,57.09
2018-06-09T09:19:29.889Z,57.13
2018-06-09T09:20:29.969Z,56.75
2018-06-09T09:21:29.754Z,56.98
2018-06-09T09:22:29.836Z,56.93
2018-06-09T09:23:29.962Z,56.67
2018-06-09T09:24:29.870Z,56.65
2018-06-09T09:25:30.082Z,56.82
2018-06-09T09:26:29.715Z,56.81
2018-06-09T09:27:29.730Z,56.88
2018-06-09T09:28:29.798Z,56.62
2018-06-09T09:29:29.711Z,56.84
2018-06-09T09:30:29.869Z,56.65
2018-06-09T09:31:29.991Z,56.76
2018-06-09T09:32:29.782Z,56.87
2018-06-09T09:33:29.942Z,56.81
2018-06-09T09:34:29.894Z,56.91
2018-06-09T09:35:29.784Z,56.77
2018-06-09T09:36:29.918Z,56.81
2018-06-09T09:37:29.680Z,56.86
2018-06-09T09:38:29.884Z,56.78
2018-06-09T09:39:29.768Z,56.71
2018-06-09T09:40:30.057Z,56.69
2018-06-09T09:41:29.957Z,56.76
2018-06-09T09:42:29.729Z,56.76
2018-06-09T09:43:29.769Z,56.81
2018-06-09T09:44:29.867Z,56.86
2018-06-09T09:45:30.022Z,56.62
2018-06-09T09:46:29.694Z,56.45
2018-06-09T09:47:29.651Z,56.51
2018-06-09T09:48:29.879Z,56.81
2018-06-09T09:49:29.762Z,56.85
2018-06-09T09:50:29.979Z,56.64
2018-06-09T09:51:29.833Z,56.81
2018-06-09T09:52:29.808Z,56.76
2018-06-09T09:53:29.816Z,56.96
2018-06-09T09:54:29.951Z,56.7
2018-06-09T09:55:29.805Z,56.91
2018-06-09T09:56:29.681Z,56.6
2018-06-09T09:57:29.752Z,56.77
2018-06-09T09:58:29.984Z,57.09
2018-06-09T09:59:29.891Z,56.81
2018-06-09T10:00:29.936Z,56.66
2018-06-09T10:01:29.863Z,56.67
2018-06-09T10:02:29.701Z,56.75
2018-06-09T10:03:29.875Z,56.8
2018-06-09T10:04:29.823Z,56.75
2018-06-09T10:05:29.701Z,56.8
2018-06-09T10:06:30.147Z,56.88
2018-06-09T10:07:29.768Z,57.07
2018-06-09T10:08:29.791Z,56.83
2018-06-09T10:09:29.743Z,56.73
2018-06-09T10:10:29.888Z,56.78
2018-06-09T10:11:29.863Z,57.01
2018-06-09T10:12:29.759Z,56.63
2018-06-09T10:13:29.745Z,56.77
2018-06-09T10:14:29.846Z,56.69
2018-06-09T10:15:29.742Z,56.71
2018-06-09T10:16:29.692Z,56.53
2018-06-09T10:17:29.892Z,56.63
2018-06-09T10:18:29.684Z,56.75
2018-06-09T10:19:29.744Z,56.71
2018-06-09T10:20:29.650Z,56.67
2018-06-09T10:21:29.732Z,56.42
2018-06-09T10:22:29.768Z,56.73
2018-06-09T10:23:29.786Z,56.47
2018-06-09T10:24:29.794Z,56.54
2018-06-09T10:25:29.743Z,56.61
2018-06-09T10:26:29.782Z,56.69
2018-06-09T10:27:29.639Z,56.52
2018-06-09T10:28:29.693Z,56.49
2018-06-09T10:29:29.748Z,56.35
2018-06-09T10:30:29.740Z,56.66
2018-06-09T10:31:29.789Z,56.62
2018-06-09T10:32:29.747Z,56.44
2018-06-09T10:33:29.908Z,56.47
2018-06-09T10:34:30.021Z,56.52
2018-06-09T10:35:29.801Z,56.57
2018-06-09T10:36:29.927Z,56.56
2018-06-09T10:37:29.838Z,56.51
2018-06-09T10:38:29.604Z,56.68
2018-06-09T10:39:29.792Z,56.38
2018-06-09T10:40:30.034Z,56.6
2018-06-09T10:41:29.923Z,56.33
2018-06-09T10:42:29.859Z,56.6
2018-06-09T10:43:29.809Z,56.6
2018-06-09T10:44:29.879Z,56.47
2018-06-09T10:45:29.867Z,56.62
2018-06-09T10:46:29.829Z,56.61
2018-06-09T10:47:29.952Z,56.59
2018-06-09T10:48:29.639Z,56.56
2018-06-09T10:49:29.676Z,56.52
2018-06-09T10:50:29.715Z,56.32
2018-06-09T10:51:29.791Z,56.64
2018-06-09T10:52:29.942Z,56.51
2018-06-09T10:53:29.903Z,56.5
2018-06-09T10:54:29.683Z,56.63
2018-06-09T10:55:29.637Z,56.47
2018-06-09T10:56:29.671Z,56.29
2018-06-09T10:57:33.064Z,56.26
2018-06-09T10:58:29.856Z,56.39
2018-06-09T10:59:29.682Z,56.48
2018-06-09T11:00:29.714Z,56.63
2018-06-09T11:01:29.852Z,56.5
2018-06-09T11:02:29.933Z,56.51
2018-06-09T11:03:29.958Z,56.24
2018-06-09T11:04:29.943Z,56.33
2018-06-09T11:05:29.781Z,56.37
2018-06-09T11:06:29.915Z,56.54
2018-06-09T11:07:30.089Z,56.36
2018-06-09T11:08:29.788Z,56.43
2018-06-09T11:09:29.657Z,56.52
2018-06-09T11:10:29.965Z,56.56
2018-06-09T11:11:29.693Z,56.45
2018-06-09T11:12:29.830Z,56.49
2018-06-09T11:13:29.789Z,56.43
2018-06-09T11:14:29.680Z,56.3
2018-06-09T11:15:30.245Z,56.17
2018-06-09T11:16:29.865Z,56.57
2018-06-09T11:17:30.086Z,56.43
2018-06-09T11:18:29.790Z,56.32
2018-06-09T11:19:29.683Z,56.32
2018-06-09T11:20:29.846Z,56.3
2018-06-09T11:21:29.933Z,56.5
2018-06-09T11:22:29.698Z,56.32
2018-06-09T11:23:29.708Z,56.41
2018-06-09T11:24:30.084Z,56.3
2018-06-09T11:25:29.937Z,56.45
2018-06-09T11:26:29.823Z,56.21
2018-06-09T11:27:29.713Z,56.26
2018-06-09T11:28:29.704Z,56.44
2018-06-09T11:29:29.828Z,56.38
2018-06-09T11:30:29.774Z,56.47
2018-06-09T11:31:29.624Z,56.17
2018-06-09T11:32:29.726Z,56.33
2018-06-09T11:33:29.723Z,56.11
2018-06-09T11:34:29.761Z,56.31
2018-06-09T11:35:29.720Z,56.22
2018-06-09T11:36:29.659Z,56.22
2018-06-09T11:37:29.864Z,56.21
2018-06-09T11:38:29.784Z,56.34
2018-06-09T11:39:29.823Z,56.38
2018-06-09T11:40:29.707Z,56.47
2018-06-09T11:41:29.910Z,56.3
2018-06-09T11:42:29.655Z,56.28
2018-06-09T11:43:29.910Z,56.14
2018-06-09T11:44:29.820Z,56.11
2018-06-09T11:45:29.713Z,56.13
2018-06-09T11:46:29.838Z,56.45
2018-06-09T11:47:29.833Z,56.1
2018-06-09T11:48:29.778Z,55.99
2018-06-09T11:49:29.747Z,56.21
2018-06-09T11:50:29.813Z,56.17
2018-06-09T11:51:29.827Z,56.09
2018-06-09T11:52:29.744Z,56.23
2018-06-09T11:53:29.779Z,56.4
2018-06-09T11:54:29.910Z,56.26
2018-06-09T11:55:29.778Z,56.24
2018-06-09T11:56:29.851Z,56.14
2018-06-09T11:57:29.660Z,56.24
2018-06-09T11:58:29.884Z,56.07
2018-06-09T11:59:29.889Z,56.11
2018-06-09T12:00:29.834Z,56.15
2018-06-09T12:01:29.775Z,56.37
2018-06-09T12:02:29.660Z,56.25
2018-06-09T12:03:29.724Z,56.12
2018-06-09T12:04:29.958Z,56.07
2018-06-09T12:05:29.671Z,56.26
2018-06-09T12:06:29.825Z,56.34
2018-06-09T12:07:29.775Z,56.1
2018-06-09T12:08:29.760Z,56.01
2018-06-09T12:09:29.791Z,56.14
2018-06-09T12:10:29.988Z,56.14
2018-06-09T12:11:29.852Z,56.21
2018-06-09T12:12:29.724Z,55.97
2018-06-09T12:13:29.770Z,56.29
2018-06-09T12:14:29.734Z,56.26
2018-06-09T12:15:29.797Z,56.01
2018-06-09T12:16:29.851Z,56.09
2018-06-09T12:17:29.996Z,56.27
2018-06-09T12:18:29.688Z,56.07
2018-06-09T12:19:29.902Z,56.04
2018-06-09T12:20:29.813Z,56.09
2018-06-09T12:21:29.751Z,56.05
2018-06-09T12:22:39.750Z,55.98
2018-06-09T12:23:29.879Z,56.34
2018-06-09T12:24:29.851Z,56.05
2018-06-09T12:25:29.965Z,56.22
2018-06-09T12:26:30.043Z,56.16
2018-06-09T12:27:29.797Z,56.51
2018-06-09T12:28:29.824Z,56.44
2018-06-09T12:29:29.817Z,56.61
2018-06-09T12:30:29.938Z,56.81
2018-06-09T12:31:29.887Z,56.69
2018-06-09T12:32:29.876Z,56.93
2018-06-09T12:33:29.851Z,56.72
2018-06-09T12:34:29.788Z,56.62
2018-06-09T12:35:29.816Z,56.75
2018-06-09T12:36:29.716Z,56.49
2018-06-09T12:37:29.804Z,56.8
2018-06-09T12:38:29.954Z,56.61
2018-06-09T12:39:29.894Z,56.58
2018-06-09T12:40:29.830Z,56.69
2018-06-09T12:41:30.058Z,56.64
2018-06-09T12:41:53.265Z,56.37
2018-06-09T12:42:53.409Z,56.02
2018-06-09T12:43:53.402Z,55.45
2018-06-09T12:44:53.300Z,55.43
2018-06-09T12:45:53.175Z,55.65
2018-06-09T12:46:53.346Z,55.25
2018-06-09T12:47:53.287Z,55.34
2018-06-09T12:48:53.337Z,55.34
2018-06-09T12:49:53.304Z,55.01
2018-06-09T12:50:53.063Z,55.02
2018-06-09T12:51:53.274Z,54.87
2018-06-09T12:52:53.350Z,55.06
2018-06-09T12:53:53.271Z,54.9
2018-06-09T12:54:53.263Z,54.92